createdAt,value
2022-12-29T00:00:20.882Z,7.07
2022-12-29T00:02:49.742Z,7.12
2022-12-29T00:05:18.704Z,7.17
2022-12-29T00:07:48.821Z,7.22
2022-12-29T00:10:17.707Z,7.24
2022-12-29T00:13:03.662Z,7.26
2022-12-29T00:15:41.718Z,7.31
2022-12-29T00:18:10.547Z,7.35
2022-12-29T00:20:57.420Z,7.32
2022-12-29T00:23:44.857Z,7.29
2022-12-29T00:26:36.931Z,7.37
2022-12-29T00:29:23.613Z,7.41
2022-12-29T00:32:09.854Z,7.45
2022-12-29T00:34:56.126Z,7.48
2022-12-29T00:37:45.001Z,7.50
2022-12-29T00:40:34.511Z,7.52
2022-12-29T00:43:20.265Z,7.52
2022-12-29T00:45:49.027Z,7.51
2022-12-29T00:48:37.882Z,7.47
2022-12-29T00:51:06.021Z,7.54
2022-12-29T00:53:34.961Z,7.49
2022-12-29T00:56:05.342Z,7.55
2022-12-29T00:58:34.087Z,7.57
2022-12-29T01:01:07.557Z,7.59
2022-12-29T01:03:38.337Z,7.58
2022-12-29T01:06:12.331Z,7.54
2022-12-29T01:08:41.277Z,7.58
2022-12-29T01:11:13.420Z,7.55
2022-12-29T01:13:44.784Z,7.57
2022-12-29T01:16:13.748Z,7.58
2022-12-29T01:18:44.022Z,7.58
2022-12-29T01:21:14.152Z,7.48
2022-12-29T01:23:43.041Z,7.48
2022-12-29T01:26:14.821Z,7.50
2022-12-29T01:28:43.942Z,7.49
2022-12-29T01:31:15.235Z,7.50
2022-12-29T01:33:45.818Z,7.44
2022-12-29T01:36:17.201Z,7.42
2022-12-29T01:38:46.809Z,7.44
2022-12-29T01:41:18.814Z,7.45
2022-12-29T01:43:50.149Z,7.45
2022-12-29T01:46:28.904Z,7.42
2022-12-29T01:49:12.134Z,7.46
2022-12-29T01:51:46.192Z,7.45
2022-12-29T01:54:22.804Z,7.37
2022-12-29T01:56:54.465Z,7.34
2022-12-29T01:59:28.718Z,7.42
2022-12-29T02:01:57.970Z,7.42
2022-12-29T02:04:34.560Z,7.40
2022-12-29T02:07:10.927Z,7.42
2022-12-29T02:09:39.697Z,7.40
2022-12-29T02:12:10.406Z,7.39
2022-12-29T02:14:39.336Z,7.43
2022-12-29T02:17:22.055Z,7.45
2022-12-29T02:20:40.064Z,7.44
2022-12-29T02:23:42.807Z,7.33
2022-12-29T02:26:37.314Z,7.37
2022-12-29T02:30:04.395Z,7.34
2022-12-29T02:32:45.412Z,7.35
2022-12-29T02:35:33.025Z,7.38
2022-12-29T02:38:19.892Z,7.45
2022-12-29T02:41:02.648Z,7.43
2022-12-29T02:43:43.087Z,7.37
2022-12-29T02:46:21.864Z,7.42
2022-12-29T02:49:03.829Z,7.40
2022-12-29T02:51:41.104Z,7.47
2022-12-29T02:54:27.489Z,7.48
2022-12-29T02:56:56.184Z,7.50
2022-12-29T02:59:26.163Z,7.51
2022-12-29T03:02:24.101Z,7.60
2022-12-29T03:05:34.723Z,7.64
2022-12-29T03:08:15.761Z,7.67
2022-12-29T03:11:01.409Z,7.69
2022-12-29T03:14:02.945Z,7.71
2022-12-29T03:16:46.001Z,7.73
2022-12-29T03:19:21.829Z,7.77
2022-12-29T03:22:17.119Z,7.84
2022-12-29T03:25:01.955Z,7.69
2022-12-29T03:27:36.547Z,7.75
2022-12-29T03:30:10.098Z,7.77
2022-12-29T03:32:48.728Z,7.80
2022-12-29T03:35:22.982Z,7.85
2022-12-29T03:38:14.701Z,7.73
2022-12-29T03:40:49.303Z,7.80
2022-12-29T03:43:19.503Z,7.79
2022-12-29T03:45:49.835Z,7.79
2022-12-29T03:48:18.585Z,7.82
2022-12-29T03:50:48.652Z,7.88
2022-12-29T03:53:19.433Z,7.85
2022-12-29T03:55:48.335Z,7.89
2022-12-29T03:58:17.898Z,7.89
2022-12-29T04:01:00.942Z,7.97
2022-12-29T04:03:32.457Z,7.99
2022-12-29T04:06:01.240Z,8.00
2022-12-29T04:08:36.585Z,8.01
2022-12-29T04:11:05.856Z,8.06
2022-12-29T04:13:34.811Z,8.06
2022-12-29T04:16:04.075Z,8.10
2022-12-29T04:18:58.778Z,8.14
2022-12-29T04:21:27.822Z,8.14
2022-12-29T04:23:58.583Z,8.17
2022-12-29T04:26:27.733Z,8.19
2022-12-29T04:29:16.876Z,8.22
2022-12-29T04:31:57.087Z,8.20
2022-12-29T04:34:26.235Z,8.21
2022-12-29T04:36:55.701Z,8.24
2022-12-29T04:39:26.099Z,8.30
2022-12-29T04:41:55.126Z,8.30
2022-12-29T04:44:24.451Z,8.34
2022-12-29T04:46:59.092Z,8.31
2022-12-29T04:49:50.347Z,8.34
2022-12-29T04:52:51.398Z,8.40
2022-12-29T04:55:21.855Z,8.42
2022-12-29T04:57:50.631Z,8.48
2022-12-29T05:00:22.553Z,8.50
2022-12-29T05:02:51.879Z,8.51
2022-12-29T05:05:21.266Z,8.54
2022-12-29T05:07:54.127Z,8.49
2022-12-29T05:10:26.652Z,8.50
2022-12-29T05:13:24.066Z,8.50
2022-12-29T05:15:55.340Z,8.49
2022-12-29T05:18:25.848Z,8.51
2022-12-29T05:20:54.799Z,8.52
2022-12-29T05:23:25.615Z,8.50
2022-12-29T05:26:01.023Z,8.49
2022-12-29T05:28:35.273Z,8.50
2022-12-29T05:31:11.398Z,8.50
2022-12-29T05:33:40.671Z,8.48
2022-12-29T05:36:11.739Z,8.48
2022-12-29T05:38:45.935Z,8.47
2022-12-29T05:41:17.038Z,8.47
2022-12-29T05:44:12.956Z,8.41
2022-12-29T05:46:51.253Z,8.36
2022-12-29T05:49:45.916Z,8.35
2022-12-29T05:52:29.309Z,8.35
2022-12-29T05:54:58.164Z,8.38
2022-12-29T05:57:29.944Z,8.38
2022-12-29T06:00:14.069Z,8.37
2022-12-29T06:02:48.111Z,8.38
2022-12-29T06:05:18.688Z,8.34
2022-12-29T06:07:48.705Z,8.37
2022-12-29T06:10:19.737Z,8.39
2022-12-29T06:13:06.612Z,8.39
2022-12-29T06:15:39.048Z,8.43
2022-12-29T06:18:16.453Z,8.40
2022-12-29T06:20:50.359Z,8.39
2022-12-29T06:23:21.799Z,8.40
2022-12-29T06:25:51.593Z,8.40
2022-12-29T06:28:21.832Z,8.39
2022-12-29T06:30:50.638Z,8.35
2022-12-29T06:33:22.072Z,8.28
2022-12-29T06:35:51.953Z,8.17
2022-12-29T06:38:21.043Z,8.16
2022-12-29T06:40:50.088Z,8.18
2022-12-29T06:43:29.580Z,8.18
2022-12-29T06:46:10.741Z,8.17
2022-12-29T06:48:39.731Z,8.16
2022-12-29T06:51:08.695Z,8.15
2022-12-29T06:53:37.877Z,8.07
2022-12-29T06:56:07.513Z,8.05
2022-12-29T06:58:37.628Z,8.06
2022-12-29T07:01:06.701Z,8.00
2022-12-29T07:03:35.921Z,7.99
2022-12-29T07:06:07.065Z,7.95
2022-12-29T07:08:35.799Z,7.94
2022-12-29T07:11:05.509Z,7.90
2022-12-29T07:13:34.557Z,7.88
2022-12-29T07:16:08.787Z,7.88
2022-12-29T07:18:38.192Z,7.90
2022-12-29T07:21:07.438Z,7.90
2022-12-29T07:23:36.309Z,7.89
2022-12-29T07:26:09.017Z,7.92
2022-12-29T07:28:39.260Z,7.91
2022-12-29T07:31:17.173Z,8.02
2022-12-29T07:33:48.635Z,8.07
2022-12-29T07:36:18.973Z,8.12
2022-12-29T07:38:47.722Z,8.14
2022-12-29T07:41:16.632Z,8.16
2022-12-29T07:43:49.115Z,8.19
2022-12-29T07:46:58.863Z,8.15
2022-12-29T07:49:28.530Z,8.13
2022-12-29T07:51:57.470Z,8.15
2022-12-29T07:54:26.337Z,8.19
2022-12-29T07:56:55.417Z,8.22
2022-12-29T07:59:24.284Z,8.24
2022-12-29T08:01:53.192Z,8.18
2022-12-29T08:04:23.684Z,8.24
2022-12-29T08:06:52.983Z,8.19
2022-12-29T08:09:23.966Z,8.21
2022-12-29T08:11:53.512Z,8.28
2022-12-29T08:14:22.567Z,8.32
2022-12-29T08:16:51.800Z,8.33
2022-12-29T08:19:20.460Z,8.39
2022-12-29T08:21:50.555Z,8.41
2022-12-29T08:24:19.260Z,8.47
2022-12-29T08:26:47.931Z,8.49
2022-12-29T08:29:16.628Z,8.49
2022-12-29T08:31:45.811Z,8.52
2022-12-29T08:34:14.538Z,8.56
2022-12-29T08:36:43.257Z,8.55
2022-12-29T08:39:13.457Z,8.54
2022-12-29T08:41:42.141Z,8.55
2022-12-29T08:44:14.007Z,8.58
2022-12-29T08:46:43.081Z,8.59
2022-12-29T08:49:11.905Z,8.58
2022-12-29T08:51:41.418Z,8.52
2022-12-29T08:54:10.162Z,8.52
2022-12-29T08:56:40.332Z,8.51
2022-12-29T08:59:09.140Z,8.48
2022-12-29T09:01:41.457Z,8.41
2022-12-29T09:04:16.054Z,8.43
2022-12-29T09:06:46.564Z,8.42
2022-12-29T09:14:20.300Z,8.45
2022-12-29T09:17:06.855Z,8.45
2022-12-29T09:19:35.887Z,8.44
2022-12-29T09:22:05.264Z,8.45
2022-12-29T09:24:34.407Z,8.50
2022-12-29T09:27:03.491Z,8.44
2022-12-29T09:29:34.315Z,8.38
2022-12-29T09:32:05.741Z,8.42
2022-12-29T09:34:37.069Z,8.44
2022-12-29T09:37:06.343Z,8.49
2022-12-29T09:39:35.566Z,8.59
2022-12-29T09:42:18.582Z,8.66
2022-12-29T09:45:04.139Z,8.63
2022-12-29T09:47:36.866Z,8.66
2022-12-29T09:50:15.003Z,8.68
2022-12-29T09:52:51.373Z,8.71
2022-12-29T09:55:26.102Z,8.71
2022-12-29T09:58:01.897Z,8.74
2022-12-29T10:00:43.307Z,8.73
2022-12-29T10:03:20.065Z,8.75
2022-12-29T10:05:54.995Z,8.79
2022-12-29T10:08:40.703Z,8.79
2022-12-29T10:11:27.387Z,8.73
2022-12-29T10:14:22.202Z,8.69
2022-12-29T10:17:10.911Z,8.69
2022-12-29T10:20:13.865Z,8.71
2022-12-29T10:23:19.197Z,8.72
2022-12-29T10:25:48.313Z,8.80
2022-12-29T10:28:23.915Z,8.81
2022-12-29T10:30:55.413Z,8.83
2022-12-29T10:33:36.724Z,8.91
2022-12-29T10:36:20.342Z,8.97
2022-12-29T10:39:07.013Z,9.12
2022-12-29T10:41:46.443Z,9.34
2022-12-29T10:44:19.799Z,9.48
2022-12-29T10:46:59.603Z,9.60
2022-12-29T10:49:32.758Z,9.74
2022-12-29T10:52:05.866Z,9.78
2022-12-29T10:54:44.654Z,9.77
2022-12-29T10:57:26.613Z,9.78
2022-12-29T10:59:55.359Z,9.74
2022-12-29T11:03:07.602Z,9.72
2022-12-29T11:05:47.381Z,9.79
2022-12-29T11:08:21.304Z,9.91
2022-12-29T11:11:02.568Z,10.03
2022-12-29T11:13:38.868Z,10.14
2022-12-29T11:16:08.485Z,10.16
2022-12-29T11:18:41.000Z,10.28
2022-12-29T11:21:34.324Z,10.29
2022-12-29T11:24:06.244Z,10.27
2022-12-29T11:26:36.049Z,10.36
2022-12-29T11:29:27.215Z,10.37
2022-12-29T13:00:18.282Z,11.10
2022-12-29T13:03:05.933Z,11.07
2022-12-29T13:06:09.000Z,10.97
2022-12-29T13:09:07.349Z,10.98
2022-12-29T13:11:56.822Z,10.94
2022-12-29T13:14:45.365Z,10.99
2022-12-29T13:17:32.779Z,11.06
2022-12-29T13:21:29.760Z,11.08
2022-12-29T13:24:15.724Z,11.01
2022-12-29T13:26:52.699Z,11.04
2022-12-29T13:29:31.858Z,11.04
2022-12-29T13:32:24.450Z,11.05
2022-12-29T13:35:11.436Z,10.95
2022-12-29T13:37:55.924Z,10.97
2022-12-29T13:40:30.863Z,10.93
2022-12-29T13:43:02.215Z,10.88
2022-12-29T13:45:36.599Z,10.88
2022-12-29T13:48:17.728Z,10.88
2022-12-29T13:50:54.522Z,10.79
2022-12-29T13:53:37.986Z,10.86
2022-12-29T13:56:15.424Z,10.89
2022-12-29T13:58:52.622Z,10.88
2022-12-29T14:01:30.655Z,10.81
2022-12-29T14:04:04.011Z,10.77
2022-12-29T14:06:41.538Z,10.76
2022-12-29T14:09:45.308Z,10.73
2022-12-29T14:12:29.327Z,10.70
2022-12-29T14:15:18.865Z,10.66
2022-12-29T14:18:04.784Z,10.62
2022-12-29T14:20:35.055Z,10.61
2022-12-29T14:23:19.695Z,10.59
2022-12-29T14:26:11.586Z,10.64
2022-12-29T14:28:43.170Z,10.70
2022-12-29T14:31:42.062Z,10.70
2022-12-29T14:34:41.702Z,10.62
2022-12-29T14:37:28.635Z,10.66
2022-12-29T14:40:19.739Z,10.64
2022-12-29T14:42:51.821Z,10.62
2022-12-29T14:45:31.517Z,10.60
2022-12-29T14:48:01.111Z,10.62
2022-12-29T14:50:43.257Z,10.69
2022-12-29T14:53:47.888Z,10.73
2022-12-29T14:56:19.584Z,10.65
2022-12-29T14:58:56.113Z,10.60
2022-12-29T15:01:40.700Z,10.54
2022-12-29T15:04:22.056Z,10.45
2022-12-29T15:06:53.332Z,10.43
2022-12-29T15:09:34.774Z,10.51
2022-12-29T15:12:16.920Z,10.44
2022-12-29T15:14:56.697Z,10.40
2022-12-29T15:17:29.713Z,10.43
2022-12-29T15:20:17.913Z,10.43
2022-12-29T15:22:50.225Z,10.40
2022-12-29T15:25:21.467Z,10.36
2022-12-29T15:27:53.774Z,10.35
2022-12-29T15:30:24.535Z,10.30
2022-12-29T15:32:56.529Z,10.24
2022-12-29T15:35:35.549Z,10.21
2022-12-29T15:38:18.093Z,10.20
2022-12-29T15:40:48.410Z,10.20
2022-12-29T15:43:47.351Z,10.17
2022-12-29T15:46:18.487Z,10.21
2022-12-29T15:48:47.605Z,10.22
2022-12-29T15:51:25.779Z,10.27
2022-12-29T15:53:56.370Z,10.29
2022-12-29T15:56:25.653Z,10.31
2022-12-29T15:58:54.905Z,10.29
2022-12-29T16:01:32.455Z,10.32
2022-12-29T16:04:05.070Z,10.25
2022-12-29T16:06:36.884Z,10.19
2022-12-29T16:09:08.927Z,10.21
2022-12-29T16:11:42.585Z,10.18
2022-12-29T16:14:18.134Z,10.22
2022-12-29T16:16:54.869Z,10.25
2022-12-29T16:19:35.179Z,10.25
2022-12-29T16:22:32.762Z,10.20
2022-12-29T16:25:10.069Z,10.10
2022-12-29T16:27:45.310Z,10.09
2022-12-29T16:30:31.079Z,10.03
2022-12-29T16:33:07.134Z,9.92
2022-12-29T16:35:48.472Z,9.90
2022-12-29T16:38:22.502Z,9.90
2022-12-29T16:40:57.146Z,9.81
2022-12-29T16:43:29.430Z,9.80
2022-12-29T16:46:27.623Z,9.82
2022-12-29T16:49:00.487Z,9.78
2022-12-29T16:51:36.112Z,9.68
2022-12-29T16:54:23.918Z,9.68
2022-12-29T16:56:54.905Z,9.67
2022-12-29T16:59:36.307Z,9.71
2022-12-29T17:02:15.028Z,9.77
2022-12-29T17:04:50.926Z,9.74
2022-12-29T17:07:24.100Z,9.77
2022-12-29T17:09:55.246Z,9.71
2022-12-29T17:12:32.496Z,9.69
2022-12-29T17:15:09.316Z,9.64
2022-12-29T17:17:43.738Z,9.60
2022-12-29T17:20:20.718Z,9.59
2022-12-29T17:22:53.036Z,9.59
2022-12-29T17:25:26.119Z,9.50
2022-12-29T17:28:07.831Z,9.48
2022-12-29T17:30:42.096Z,9.46
2022-12-29T17:33:18.569Z,9.42
2022-12-29T17:35:55.175Z,9.39
2022-12-29T17:38:30.065Z,9.35
2022-12-29T17:41:02.365Z,9.37
2022-12-29T17:43:36.622Z,9.33
2022-12-29T17:46:09.127Z,9.29
2022-12-29T17:48:40.223Z,9.25
2022-12-29T17:51:16.731Z,9.15
2022-12-29T17:53:52.088Z,9.13
2022-12-29T17:56:22.076Z,9.14
2022-12-29T17:58:53.809Z,9.12
2022-12-29T18:01:22.667Z,9.11
2022-12-29T18:03:51.572Z,9.09
2022-12-29T18:06:22.095Z,9.04
2022-12-29T18:08:51.008Z,9.01
2022-12-29T18:11:26.913Z,9.00
2022-12-29T18:13:56.390Z,8.97
2022-12-29T18:16:25.619Z,8.99
2022-12-29T18:19:00.500Z,8.99
2022-12-29T18:21:33.241Z,8.97
2022-12-29T18:24:02.030Z,8.99
2022-12-29T18:26:35.625Z,8.96
2022-12-29T18:29:29.907Z,9.01
2022-12-29T18:32:00.850Z,8.97
2022-12-29T18:34:30.118Z,8.99
2022-12-29T18:37:02.996Z,8.99
2022-12-29T18:39:32.241Z,9.01
2022-12-29T18:42:01.343Z,8.94
2022-12-29T18:44:31.889Z,8.89
2022-12-29T18:47:01.348Z,8.87
2022-12-29T18:49:30.503Z,8.79
2022-12-29T18:52:00.647Z,8.78
2022-12-29T18:54:32.196Z,8.80
2022-12-29T18:57:01.303Z,8.78
2022-12-29T18:59:30.271Z,8.81
2022-12-29T19:01:59.261Z,8.80
2022-12-29T19:04:29.076Z,8.84
2022-12-29T19:06:59.423Z,8.86
2022-12-29T19:09:28.371Z,8.84
2022-12-29T19:11:57.058Z,8.85
2022-12-29T19:14:26.236Z,8.78
2022-12-29T19:16:55.412Z,8.81
2022-12-29T19:19:24.582Z,8.81
2022-12-29T19:21:56.620Z,8.79
2022-12-29T19:24:26.911Z,8.75
2022-12-29T19:26:56.241Z,8.79
2022-12-29T19:29:25.010Z,8.75
2022-12-29T19:32:41.183Z,8.71
2022-12-29T19:35:12.135Z,8.64
2022-12-29T19:37:41.525Z,8.58
2022-12-29T19:40:16.689Z,8.50
2022-12-29T19:42:45.789Z,8.46
2022-12-29T19:45:17.456Z,8.46
2022-12-29T19:47:46.491Z,8.44
2022-12-29T19:50:18.981Z,8.45
2022-12-29T19:53:04.540Z,8.49
2022-12-29T19:55:35.309Z,8.33
2022-12-29T19:58:04.128Z,8.46
2022-12-29T20:00:32.907Z,8.47
2022-12-29T20:03:01.975Z,8.51
2022-12-29T20:05:31.599Z,8.54
2022-12-29T20:08:01.387Z,8.54
2022-12-29T20:10:30.242Z,8.55
2022-12-29T20:13:00.452Z,8.35
2022-12-29T20:15:29.176Z,8.39
2022-12-29T20:18:14.710Z,8.39
2022-12-29T20:20:44.570Z,8.39
2022-12-29T20:23:13.225Z,8.32
2022-12-29T20:25:45.776Z,8.31
2022-12-29T20:29:07.605Z,8.29
2022-12-29T20:31:39.750Z,8.24
2022-12-29T20:34:09.969Z,8.12
2022-12-29T20:36:43.906Z,8.09
2022-12-29T20:39:19.302Z,8.05
2022-12-29T20:41:49.860Z,7.88
2022-12-29T20:44:20.533Z,7.88
2022-12-29T20:47:08.870Z,7.84
2022-12-29T20:49:37.831Z,7.83
2022-12-29T20:52:07.504Z,7.73
2022-12-29T20:54:39.510Z,7.74
2022-12-29T20:57:09.062Z,7.73
2022-12-29T20:59:39.449Z,7.75
2022-12-29T21:02:08.668Z,7.66
2022-12-29T21:05:05.573Z,7.69
2022-12-29T21:07:30.701Z,7.68
2022-12-29T21:09:59.478Z,7.64
2022-12-29T21:12:28.168Z,7.63
2022-12-29T21:15:00.363Z,7.64
2022-12-29T21:17:29.258Z,7.63
2022-12-29T21:19:58.043Z,7.64
2022-12-29T21:22:29.962Z,7.66
2022-12-29T21:24:59.058Z,7.55
2022-12-29T21:27:27.827Z,7.51
2022-12-29T21:29:58.137Z,7.57
2022-12-29T21:32:28.372Z,7.51
2022-12-29T21:34:57.048Z,7.54
2022-12-29T21:37:25.789Z,7.47
2022-12-29T21:39:54.479Z,7.50
2022-12-29T21:42:23.370Z,7.47
2022-12-29T21:45:29.999Z,7.51
2022-12-29T21:48:30.356Z,7.52
2022-12-29T21:51:30.399Z,7.51
2022-12-29T21:54:22.581Z,7.49
2022-12-29T21:56:52.945Z,7.41
2022-12-29T21:59:38.839Z,7.47
2022-12-29T22:02:37.134Z,7.39
2022-12-29T22:05:28.381Z,7.40
2022-12-29T22:08:14.661Z,7.36
2022-12-29T22:11:03.132Z,7.34
2022-12-29T22:13:34.039Z,7.34
2022-12-29T22:16:06.071Z,7.32
2022-12-29T22:18:35.252Z,7.25
2022-12-29T22:21:07.322Z,7.33
2022-12-29T22:23:37.636Z,7.33
2022-12-29T22:26:07.484Z,7.31
2022-12-29T22:28:38.470Z,7.29
2022-12-29T22:31:25.158Z,7.29
2022-12-29T22:33:54.989Z,7.28
2022-12-29T22:36:26.155Z,7.25
2022-12-29T22:38:55.253Z,7.20
2022-12-29T22:41:24.138Z,7.16
2022-12-29T22:43:52.903Z,7.14
2022-12-29T22:46:21.735Z,7.20
2022-12-29T22:48:50.915Z,7.23
2022-12-29T22:51:19.791Z,7.24
2022-12-29T22:53:52.200Z,7.26
2022-12-29T22:56:21.063Z,7.23
2022-12-29T22:58:50.394Z,7.24
2022-12-29T23:01:22.555Z,7.19
2022-12-29T23:04:10.284Z,7.20
2022-12-29T23:06:43.128Z,7.20
2022-12-29T23:09:19.345Z,7.24
2022-12-29T23:11:49.255Z,7.24
2022-12-29T23:14:47.548Z,7.25
2022-12-29T23:17:16.212Z,7.23
2022-12-29T23:19:44.962Z,7.21
2022-12-29T23:22:13.737Z,7.21
2022-12-29T23:24:43.834Z,7.25
2022-12-29T23:27:12.614Z,7.28
2022-12-29T23:29:41.317Z,7.25
2022-12-29T23:32:10.801Z,7.28
2022-12-29T23:34:39.572Z,7.20
2022-12-29T23:37:08.387Z,7.23
2022-12-29T23:39:37.046Z,7.22
2022-12-29T23:42:07.394Z,7.15
2022-12-29T23:44:36.274Z,7.15
2022-12-29T23:47:05.019Z,7.17
2022-12-29T23:49:36.917Z,7.19
2022-12-29T23:52:05.587Z,7.16
2022-12-29T23:54:34.351Z,7.13
2022-12-29T23:57:03.041Z,7.14
2022-12-29T23:59:33.134Z,7.14
